createdAt,value
2023-01-04T00:01:23.675Z,9.93
2023-01-04T00:03:51.665Z,7.60
2023-01-04T00:06:19.809Z,12.68
2023-01-04T00:08:47.215Z,6.93
2023-01-04T00:11:20.490Z,7.25
2023-01-04T00:13:53.607Z,10.98
2023-01-04T00:16:24.644Z,6.00
2023-01-04T00:18:54.192Z,6.13
2023-01-04T00:21:28.155Z,7.03
2023-01-04T00:23:59.416Z,8.43
2023-01-04T00:26:32.834Z,7.97
2023-01-04T00:29:07.111Z,6.47
2023-01-04T00:31:35.081Z,9.33
2023-01-04T00:34:05.500Z,7.75
2023-01-04T00:36:34.563Z,6.85
2023-01-04T00:39:09.957Z,8.73
2023-01-04T00:42:00.918Z,9.53
2023-01-04T00:44:30.069Z,10.00
2023-01-04T00:46:58.731Z,8.67
2023-01-04T00:49:27.686Z,7.83
2023-01-04T00:51:55.691Z,9.37
2023-01-04T00:54:23.306Z,9.33
2023-01-04T00:56:52.035Z,8.63
2023-01-04T00:59:21.516Z,10.83
2023-01-04T01:01:49.068Z,10.47
2023-01-04T01:04:20.149Z,9.87
2023-01-04T01:06:48.281Z,8.37
2023-01-04T01:09:16.325Z,8.20
2023-01-04T01:11:43.820Z,6.43
2023-01-04T01:14:22.707Z,10.70
2023-01-04T01:16:58.642Z,7.90
2023-01-04T01:19:28.911Z,10.80
2023-01-04T01:21:58.240Z,13.05
2023-01-04T01:24:26.340Z,10.40
2023-01-04T01:26:53.709Z,8.07
2023-01-04T01:29:21.108Z,8.67
2023-01-04T01:31:48.343Z,12.17
2023-01-04T01:34:15.826Z,7.97
2023-01-04T01:36:43.025Z,10.63
2023-01-04T01:39:10.297Z,8.77
2023-01-04T01:41:37.549Z,7.70
2023-01-04T01:44:12.584Z,9.20
2023-01-04T01:46:39.810Z,7.03
2023-01-04T01:49:31.467Z,8.33
2023-01-04T01:52:04.191Z,8.57
2023-01-04T01:54:57.148Z,5.93
2023-01-04T01:57:28.892Z,6.17
2023-01-04T02:00:02.213Z,7.27
2023-01-04T02:03:16.582Z,5.73
2023-01-04T02:05:47.093Z,7.77
2023-01-04T02:08:16.332Z,8.50
2023-01-04T02:10:43.624Z,8.30
2023-01-04T02:13:15.708Z,5.67
2023-01-04T02:16:18.648Z,8.80
2023-01-04T02:19:22.600Z,6.57
2023-01-04T02:22:25.320Z,5.37
2023-01-04T02:25:26.370Z,6.73
2023-01-04T02:31:14.252Z,6.73
2023-01-04T02:33:49.976Z,8.57
2023-01-04T02:36:37.826Z,6.43
2023-01-04T02:39:35.316Z,5.60
2023-01-04T02:43:15.904Z,6.67
2023-01-04T02:45:54.822Z,7.10
2023-01-04T02:48:40.787Z,7.13
2023-01-04T02:51:32.185Z,8.90
2023-01-04T02:54:10.710Z,7.97
2023-01-04T02:57:19.429Z,6.80
2023-01-04T03:00:16.934Z,7.07
2023-01-04T03:03:20.489Z,5.37
2023-01-04T03:06:31.321Z,5.63
2023-01-04T03:09:08.387Z,6.03
2023-01-04T03:12:10.180Z,5.73
2023-01-04T03:14:55.053Z,8.57
2023-01-04T03:17:24.913Z,5.73
2023-01-04T03:19:55.578Z,5.18
2023-01-04T03:22:59.063Z,6.53
2023-01-04T03:26:00.294Z,6.40
2023-01-04T03:28:52.719Z,7.57
2023-01-04T03:31:47.781Z,8.03
2023-01-04T03:34:33.816Z,5.87
2023-01-04T03:37:36.314Z,6.40
2023-01-04T03:40:29.580Z,6.43
2023-01-04T03:43:31.287Z,4.63
2023-01-04T03:46:36.859Z,7.50
2023-01-04T03:49:39.349Z,4.73
2023-01-04T03:52:09.451Z,7.40
2023-01-04T03:54:48.104Z,5.05
2023-01-04T03:57:16.795Z,6.80
2023-01-04T03:59:55.251Z,7.03
2023-01-04T04:02:30.519Z,9.13
2023-01-04T04:05:16.621Z,7.90
2023-01-04T04:08:02.651Z,12.60
2023-01-04T04:10:29.999Z,12.90
2023-01-04T04:12:57.195Z,10.17
2023-01-04T04:15:24.365Z,8.07
2023-01-04T04:17:51.549Z,12.30
2023-01-04T04:20:18.816Z,10.97
2023-01-04T04:22:46.129Z,10.33
2023-01-04T04:25:13.353Z,15.00
2023-01-04T04:27:40.674Z,10.63
2023-01-04T04:30:08.732Z,12.57
2023-01-04T04:32:36.000Z,11.87
2023-01-04T04:35:03.277Z,9.40
2023-01-04T04:37:32.167Z,11.50
2023-01-04T04:39:59.725Z,15.87
2023-01-04T04:42:27.118Z,14.43
2023-01-04T04:44:54.281Z,9.43
2023-01-04T04:47:21.624Z,13.40
2023-01-04T04:49:48.874Z,10.43
2023-01-04T04:52:16.138Z,11.77
2023-01-04T04:54:43.292Z,13.97
2023-01-04T04:57:10.516Z,15.90
2023-01-04T04:59:37.804Z,14.33
2023-01-04T05:02:05.165Z,12.80
2023-01-04T05:04:32.567Z,10.70
2023-01-04T05:06:59.759Z,11.57
2023-01-04T05:09:27.087Z,12.43
2023-01-04T05:12:12.708Z,14.67
2023-01-04T05:14:39.871Z,11.70
2023-01-04T05:17:07.037Z,11.23
2023-01-04T05:19:34.283Z,15.77
2023-01-04T05:22:01.499Z,16.30
2023-01-04T05:24:29.338Z,12.00
2023-01-04T05:26:56.601Z,12.37
2023-01-04T05:29:42.490Z,13.87
2023-01-04T05:32:09.721Z,13.97
2023-01-04T05:34:36.993Z,13.70
2023-01-04T05:37:04.245Z,14.73
2023-01-04T05:39:31.439Z,15.03
2023-01-04T05:42:17.495Z,15.70
2023-01-04T05:44:44.671Z,15.27
2023-01-04T05:47:15.019Z,15.53
2023-01-04T05:52:10.952Z,12.83
2023-01-04T05:54:38.160Z,15.17
2023-01-04T05:57:05.728Z,13.50
2023-01-04T05:59:37.254Z,15.43
2023-01-04T06:02:22.491Z,16.23
2023-01-04T06:04:58.067Z,15.93
2023-01-04T06:07:25.599Z,14.03
2023-01-04T06:09:52.912Z,17.33
2023-01-04T06:12:20.458Z,16.80
2023-01-04T06:14:47.708Z,16.97
2023-01-04T06:17:14.940Z,17.40
2023-01-04T06:19:42.304Z,22.07
2023-01-04T06:22:09.564Z,16.07
2023-01-04T06:24:36.822Z,20.70
2023-01-04T06:27:04.411Z,14.80
2023-01-04T06:29:31.668Z,21.77
2023-01-04T06:31:59.010Z,19.27
2023-01-04T06:34:30.859Z,17.57
2023-01-04T06:36:59.193Z,19.00
2023-01-04T06:39:26.428Z,17.80
2023-01-04T06:41:53.780Z,16.23
2023-01-04T06:44:21.345Z,24.40
2023-01-04T06:46:48.561Z,20.17
2023-01-04T06:49:15.729Z,17.17
2023-01-04T06:51:43.008Z,21.37
2023-01-04T06:54:14.415Z,23.67
2023-01-04T06:56:42.001Z,27.20
2023-01-04T06:59:09.691Z,28.17
2023-01-04T07:01:36.997Z,22.23
2023-01-04T07:04:04.425Z,25.77
2023-01-04T07:06:31.792Z,23.93
2023-01-04T07:08:58.979Z,25.70
2023-01-04T07:11:26.133Z,23.43
2023-01-04T07:13:53.492Z,25.90
2023-01-04T07:16:20.915Z,26.23
2023-01-04T07:18:48.181Z,25.77
2023-01-04T07:21:15.515Z,29.50
2023-01-04T07:23:42.751Z,34.40
2023-01-04T07:26:10.045Z,30.63
2023-01-04T07:29:15.552Z,26.23
2023-01-04T07:31:46.371Z,26.87
2023-01-04T07:36:42.284Z,26.60
2023-01-04T07:39:11.841Z,26.67
2023-01-04T07:41:43.742Z,25.40
2023-01-04T07:44:12.450Z,25.63
2023-01-04T07:46:40.906Z,31.27
2023-01-04T07:49:17.402Z,31.37
2023-01-04T07:51:49.576Z,27.37
2023-01-04T07:54:18.212Z,34.47
2023-01-04T07:56:47.570Z,29.57
2023-01-04T07:59:18.839Z,29.37
2023-01-04T08:01:46.407Z,25.30
2023-01-04T08:04:15.832Z,23.08
2023-01-04T08:06:46.846Z,19.95
2023-01-04T08:09:14.449Z,15.77
2023-01-04T08:11:41.955Z,17.65
2023-01-04T08:14:09.427Z,13.68
2023-01-04T08:16:40.092Z,18.75
2023-01-04T08:19:18.407Z,13.73
2023-01-04T08:21:46.596Z,10.75
2023-01-04T08:24:19.730Z,9.23
2023-01-04T08:26:47.530Z,10.63
2023-01-04T08:29:15.069Z,12.70
2023-01-04T08:31:42.396Z,8.60
2023-01-04T08:34:10.418Z,8.38
2023-01-04T08:36:50.448Z,10.23
2023-01-04T08:39:17.736Z,7.90
2023-01-04T08:42:04.276Z,8.38
2023-01-04T08:44:38.301Z,10.57
2023-01-04T08:47:07.373Z,8.45
2023-01-04T08:49:34.746Z,11.75
2023-01-04T08:52:02.215Z,8.52
2023-01-04T08:54:29.389Z,10.23
2023-01-04T08:56:56.598Z,12.63
2023-01-04T08:59:23.920Z,10.57
2023-01-04T09:01:51.217Z,12.38
2023-01-04T09:04:18.521Z,9.63
2023-01-04T09:06:45.841Z,14.57
2023-01-04T09:09:14.360Z,9.70
2023-01-04T09:11:41.620Z,11.70
2023-01-04T09:14:10.534Z,9.82
2023-01-04T09:16:38.644Z,9.13
2023-01-04T09:19:06.647Z,11.82
2023-01-04T09:21:33.913Z,8.38
2023-01-04T09:24:01.264Z,9.02
2023-01-04T09:26:28.526Z,8.50
2023-01-04T09:28:57.345Z,9.52
2023-01-04T09:31:28.291Z,9.35
2023-01-04T09:34:15.312Z,9.18
2023-01-04T09:36:44.284Z,9.65
2023-01-04T09:39:20.463Z,6.90
2023-01-04T09:42:37.041Z,8.73
2023-01-04T09:45:26.584Z,7.88
2023-01-04T09:48:24.974Z,7.80
2023-01-04T09:51:02.598Z,9.70
2023-01-04T09:54:03.528Z,9.05
2023-01-04T09:56:36.103Z,9.15
2023-01-04T09:59:10.978Z,12.18
2023-01-04T10:01:54.144Z,12.68
2023-01-04T10:04:36.703Z,11.15
2023-01-04T10:07:05.341Z,10.57
2023-01-04T10:09:33.935Z,10.40
2023-01-04T10:12:30.453Z,9.25
2023-01-04T10:15:18.962Z,10.05
2023-01-04T10:21:33.397Z,10.07
2023-01-04T10:24:46.422Z,7.85
2023-01-04T10:27:43.208Z,8.55
2023-01-04T10:30:48.859Z,5.60
2023-01-04T10:33:55.912Z,8.63
2023-01-04T10:36:31.522Z,5.13
2023-01-04T10:39:09.724Z,7.20
2023-01-04T10:41:44.563Z,0.98
2023-01-04T10:44:22.671Z,2.03
2023-01-04T10:47:32.616Z,2.10
2023-01-04T10:50:08.735Z,1.95
2023-01-04T10:52:51.588Z,1.13
2023-01-04T10:55:47.055Z,3.05
2023-01-04T10:58:42.639Z,1.60
2023-01-04T11:01:33.041Z,2.95
2023-01-04T11:04:25.812Z,3.83
2023-01-04T11:07:08.149Z,1.58
2023-01-04T11:10:00.894Z,1.63
2023-01-04T11:12:28.209Z,1.35
2023-01-04T11:14:55.444Z,1.75
2023-01-04T11:17:25.105Z,2.97
2023-01-04T11:19:54.038Z,1.53
2023-01-04T11:22:31.685Z,2.10
2023-01-04T11:28:08.642Z,1.30
2023-01-04T11:31:13.226Z,2.30
2023-01-04T11:34:02.441Z,3.17
2023-01-04T11:36:35.779Z,1.30
2023-01-04T11:39:05.770Z,1.73
2023-01-04T11:41:33.409Z,2.20
2023-01-04T11:44:06.973Z,1.02
2023-01-04T11:46:35.292Z,3.05
2023-01-04T11:49:02.694Z,1.67
2023-01-04T11:51:29.890Z,3.30
2023-01-04T11:54:05.751Z,1.95
2023-01-04T11:56:36.458Z,1.63
2023-01-04T11:59:09.327Z,1.05
2023-01-04T12:01:42.142Z,2.28
2023-01-04T12:04:30.527Z,1.65
2023-01-04T12:07:18.786Z,1.35
2023-01-04T12:09:46.046Z,1.48
2023-01-04T12:12:16.034Z,2.20
2023-01-04T12:14:49.860Z,2.15
2023-01-04T12:17:41.330Z,2.00
2023-01-04T12:20:21.681Z,1.52
2023-01-04T12:22:48.940Z,3.83
2023-01-04T12:25:28.151Z,2.17
2023-01-04T12:27:55.755Z,2.13
2023-01-04T12:30:44.577Z,5.85
2023-01-04T12:33:30.191Z,4.32
2023-01-04T12:36:13.744Z,2.00
2023-01-04T12:38:56.169Z,3.05
2023-01-04T12:42:00.435Z,2.22
2023-01-04T12:44:36.844Z,0.90
2023-01-04T12:47:39.262Z,1.60
2023-01-04T12:50:27.649Z,1.15
2023-01-04T12:53:20.057Z,5.88
2023-01-04T12:55:54.426Z,2.25
2023-01-04T13:01:28.859Z,1.83
2023-01-04T13:04:29.343Z,1.27
2023-01-04T13:07:10.256Z,1.92
2023-01-04T13:10:00.974Z,1.02
2023-01-04T13:16:06.775Z,0.80
2023-01-04T13:18:58.822Z,1.75
2023-01-04T13:21:55.643Z,1.15
2023-01-04T13:24:32.603Z,1.80
2023-01-04T13:27:18.997Z,2.13
2023-01-04T13:29:48.331Z,1.90
2023-01-04T13:32:29.362Z,0.90
2023-01-04T13:35:15.136Z,0.88
2023-01-04T13:37:51.081Z,1.55
2023-01-04T13:40:36.118Z,2.90
2023-01-04T13:43:15.457Z,1.73
2023-01-04T13:46:03.782Z,2.78
2023-01-04T13:48:40.702Z,2.42
2023-01-04T13:51:29.109Z,1.70
2023-01-04T13:54:02.398Z,1.63
2023-01-04T13:56:33.166Z,2.20
2023-01-04T13:59:01.263Z,2.53
2023-01-04T14:01:44.758Z,3.35
2023-01-04T14:04:33.849Z,2.88
2023-01-04T14:07:01.974Z,1.60
2023-01-04T14:09:35.629Z,3.05
2023-01-04T14:12:20.571Z,1.65
2023-01-04T14:15:00.579Z,1.80
2023-01-04T14:17:51.629Z,1.67
2023-01-04T14:20:24.998Z,3.42
2023-01-04T14:22:58.061Z,4.72
2023-01-04T14:25:34.617Z,3.42
2023-01-04T14:28:24.600Z,3.30
2023-01-04T14:31:00.278Z,2.58
2023-01-04T14:33:37.022Z,3.55
2023-01-04T14:36:07.496Z,1.38
2023-01-04T14:38:58.423Z,1.65
2023-01-04T14:44:01.607Z,1.90
2023-01-04T14:46:31.790Z,3.17
2023-01-04T14:48:59.841Z,1.73
2023-01-04T14:51:48.705Z,5.15
2023-01-04T14:54:23.916Z,9.40
2023-01-04T14:56:54.034Z,8.13
2023-01-04T14:59:24.242Z,5.85
2023-01-04T15:01:57.146Z,3.40
2023-01-04T15:04:25.485Z,4.28
2023-01-04T15:07:01.396Z,1.33
2023-01-04T15:09:29.546Z,2.33
2023-01-04T15:11:57.429Z,2.78
2023-01-04T15:14:25.063Z,4.78
2023-01-04T15:16:52.422Z,2.45
2023-01-04T15:19:19.712Z,2.75
2023-01-04T15:21:47.310Z,1.27
2023-01-04T15:24:14.892Z,3.10
2023-01-04T15:26:43.668Z,2.17
2023-01-04T15:29:11.116Z,2.25
2023-01-04T15:31:40.110Z,0.90
2023-01-04T15:34:10.188Z,1.23
2023-01-04T15:36:41.015Z,1.33
2023-01-04T15:39:12.766Z,2.85
2023-01-04T15:41:59.041Z,1.60
2023-01-04T15:44:26.906Z,1.23
2023-01-04T15:46:55.108Z,3.42
2023-01-04T15:49:22.549Z,1.65
2023-01-04T15:51:49.955Z,2.45
2023-01-04T15:54:21.839Z,2.15
2023-01-04T15:56:49.759Z,1.92
2023-01-04T15:59:17.502Z,1.30
2023-01-04T16:01:45.669Z,3.72
2023-01-04T16:04:13.106Z,1.58
2023-01-04T16:06:41.029Z,2.15
2023-01-04T16:09:08.616Z,2.08
2023-01-04T16:11:36.182Z,1.58
2023-01-04T16:14:03.852Z,2.13
2023-01-04T16:16:33.001Z,2.10
2023-01-04T16:19:02.111Z,1.75
2023-01-04T16:21:31.621Z,2.38
2023-01-04T16:24:07.247Z,4.13
2023-01-04T16:26:44.646Z,1.70
2023-01-04T16:29:13.217Z,1.85
2023-01-04T16:31:42.876Z,1.90
2023-01-04T16:34:15.358Z,1.30
2023-01-04T16:36:42.709Z,2.60
2023-01-04T16:39:09.907Z,3.03
2023-01-04T16:41:37.217Z,2.70
2023-01-04T16:44:05.742Z,1.23
2023-01-04T16:46:37.702Z,3.30
2023-01-04T16:49:15.018Z,2.03
2023-01-04T16:51:47.361Z,1.40
2023-01-04T16:54:17.797Z,1.52
2023-01-04T16:56:49.307Z,3.03
2023-01-04T16:59:19.127Z,2.20
2023-01-04T17:01:57.383Z,1.35
2023-01-04T17:04:25.506Z,1.63
2023-01-04T17:06:55.014Z,1.98
2023-01-04T17:09:22.547Z,2.53
2023-01-04T17:15:00.819Z,2.92
2023-01-04T17:17:34.629Z,1.67
2023-01-04T17:20:01.877Z,1.88
2023-01-04T17:22:33.976Z,1.25
2023-01-04T17:25:02.307Z,1.33
2023-01-04T17:27:29.473Z,2.13
2023-01-04T17:29:56.615Z,1.25
2023-01-04T17:32:23.930Z,1.33
2023-01-04T17:34:51.936Z,2.17
2023-01-04T17:37:19.268Z,1.60
2023-01-04T17:39:46.524Z,3.25
2023-01-04T17:42:13.737Z,3.25
2023-01-04T17:44:40.971Z,2.13
2023-01-04T17:47:08.206Z,1.48
2023-01-04T17:49:35.588Z,1.95
2023-01-04T17:52:02.841Z,1.67
2023-01-04T17:54:30.254Z,1.60
2023-01-04T17:56:57.954Z,1.40
2023-01-04T17:59:25.380Z,3.85
2023-01-04T18:01:52.823Z,1.75
2023-01-04T18:04:20.730Z,1.13
2023-01-04T18:06:47.923Z,1.75
2023-01-04T18:09:18.601Z,3.08
2023-01-04T18:11:49.496Z,9.73
2023-01-04T18:14:16.736Z,68.25
2023-01-04T18:16:57.427Z,76.18
2023-01-04T18:19:28.390Z,2.75
2023-01-04T18:21:56.491Z,2.20
2023-01-04T18:24:39.749Z,3.05
2023-01-04T18:27:23.226Z,1.60
2023-01-04T18:29:52.922Z,1.75
2023-01-04T18:32:21.289Z,2.83
2023-01-04T18:34:48.617Z,2.40
2023-01-04T18:37:16.721Z,1.65
2023-01-04T18:39:44.255Z,0.90
2023-01-04T18:42:11.525Z,0.60
2023-01-04T18:44:44.119Z,0.55
2023-01-04T18:47:17.714Z,1.48
2023-01-04T18:49:45.266Z,0.73
2023-01-04T18:52:13.741Z,4.82
2023-01-04T18:54:41.142Z,0.90
2023-01-04T18:57:08.548Z,0.77
2023-01-04T18:59:35.772Z,1.35
2023-01-04T19:02:04.207Z,1.73
2023-01-04T19:04:34.520Z,2.47
2023-01-04T19:07:02.224Z,0.82
2023-01-04T19:09:30.722Z,1.02
2023-01-04T19:11:58.028Z,2.28
2023-01-04T19:14:25.412Z,2.35
2023-01-04T19:16:53.381Z,1.55
2023-01-04T19:19:21.200Z,1.13
2023-01-04T19:21:49.298Z,1.00
2023-01-04T19:24:16.601Z,1.13
2023-01-04T19:26:44.154Z,2.20
2023-01-04T19:29:11.687Z,1.00
2023-01-04T19:31:39.220Z,2.63
2023-01-04T19:34:10.008Z,1.30
2023-01-04T19:36:37.637Z,2.90
2023-01-04T19:39:09.299Z,1.45
2023-01-04T19:41:38.354Z,1.42
2023-01-04T19:44:11.229Z,1.80
2023-01-04T19:46:39.755Z,2.50
2023-01-04T19:49:14.519Z,3.13
2023-01-04T19:51:45.337Z,4.03
2023-01-04T19:54:13.547Z,1.58
2023-01-04T19:56:41.210Z,2.42
2023-01-04T19:59:09.213Z,1.15
2023-01-04T20:01:36.889Z,2.90
2023-01-04T20:04:04.687Z,2.03
2023-01-04T20:06:33.260Z,3.63
2023-01-04T20:09:00.547Z,3.10
2023-01-04T20:11:27.955Z,3.08
2023-01-04T20:13:55.239Z,4.65
2023-01-04T20:16:22.595Z,2.72
2023-01-04T20:18:49.847Z,7.97
2023-01-04T20:21:17.135Z,2.05
2023-01-04T20:23:44.583Z,4.20
2023-01-04T20:26:17.410Z,1.65
2023-01-04T20:28:46.237Z,2.15
2023-01-04T20:31:17.126Z,2.53
2023-01-04T20:36:20.045Z,2.90
2023-01-04T20:38:49.035Z,5.10
2023-01-04T20:41:22.789Z,3.45
2023-01-04T20:43:51.053Z,3.17
2023-01-04T20:46:25.444Z,1.95
2023-01-04T20:48:53.206Z,3.78
2023-01-04T20:51:24.206Z,6.25
2023-01-04T20:53:52.781Z,3.08
2023-01-04T20:56:27.392Z,3.08
2023-01-04T20:58:55.990Z,3.65
2023-01-04T21:01:25.475Z,2.40
2023-01-04T21:03:53.132Z,4.68
2023-01-04T21:06:22.492Z,4.25
2023-01-04T21:08:55.032Z,2.88
2023-01-04T21:11:23.212Z,2.70
2023-01-04T21:13:51.780Z,2.63
2023-01-04T21:16:19.205Z,2.50
2023-01-04T21:18:46.769Z,2.45
2023-01-04T21:21:17.535Z,2.55
2023-01-04T21:23:46.206Z,2.85
2023-01-04T21:26:17.004Z,4.22
2023-01-04T21:28:46.011Z,1.77
2023-01-04T21:31:21.358Z,2.88
2023-01-04T21:33:49.869Z,2.60
2023-01-04T21:36:23.706Z,4.70
2023-01-04T21:38:53.244Z,2.72
2023-01-04T21:41:25.304Z,2.83
2023-01-04T21:43:56.228Z,2.85
2023-01-04T21:48:58.323Z,3.05
2023-01-04T21:51:27.545Z,2.35
2023-01-04T21:53:55.362Z,2.25
2023-01-04T21:56:24.734Z,2.58
2023-01-04T21:58:52.383Z,2.60
2023-01-04T22:01:32.655Z,4.60
2023-01-04T22:04:02.071Z,2.38
2023-01-04T22:06:30.237Z,2.13
2023-01-04T22:08:58.767Z,3.22
2023-01-04T22:11:26.087Z,2.13
2023-01-04T22:13:53.353Z,4.80
2023-01-04T22:16:21.049Z,2.03
2023-01-04T22:18:49.968Z,2.40
2023-01-04T22:21:23.958Z,2.40
2023-01-04T22:23:52.260Z,2.65
2023-01-04T22:26:19.674Z,1.65
2023-01-04T22:28:47.161Z,1.77
2023-01-04T22:31:15.442Z,2.47
2023-01-04T22:33:43.371Z,1.23
2023-01-04T22:36:21.625Z,1.33
2023-01-04T22:38:55.524Z,0.98
2023-01-04T22:41:28.391Z,1.50
2023-01-04T22:43:59.503Z,1.58
2023-01-04T22:46:28.994Z,1.27
2023-01-04T22:48:57.187Z,0.82
2023-01-04T22:51:27.695Z,1.88
2023-01-04T22:54:01.436Z,0.43
2023-01-04T22:56:29.749Z,3.20
2023-01-04T22:58:58.350Z,2.13
2023-01-04T23:01:29.883Z,1.30
2023-01-04T23:03:59.243Z,2.17
2023-01-04T23:06:29.129Z,1.83
2023-01-04T23:08:59.627Z,2.75
2023-01-04T23:11:29.379Z,1.35
2023-01-04T23:13:58.018Z,3.47
2023-01-04T23:16:31.984Z,2.15
2023-01-04T23:19:01.791Z,1.92
2023-01-04T23:21:29.739Z,2.53
2023-01-04T23:23:57.170Z,3.35
2023-01-04T23:26:27.259Z,1.38
2023-01-04T23:28:54.550Z,1.10
2023-01-04T23:31:25.018Z,1.40
2023-01-04T23:33:55.306Z,2.17
2023-01-04T23:36:27.012Z,1.05
2023-01-04T23:38:57.738Z,1.85
2023-01-04T23:44:33.042Z,0.98
2023-01-04T23:49:35.598Z,1.27
2023-01-04T23:54:31.834Z,0.73
2023-01-04T23:57:00.366Z,1.50
2023-01-04T23:59:27.815Z,9.15
